Main page
METAR-TAF:

METAR-TAF

Airports :

Zahedan, Iran

Zahedan Airport

latitude: 29-28N, longitude: 060-53E, elevation: 1370 m

Current weather observation

The report was made 16 minutes ago, at 19:00 UTC
Wind 6 kt from the South
Temperature 12°C
Humidity 22%
Pressure 1018 hPa
Visibility 10 km or more
no clouds below 1500 m and no cumulonimbus

METAR: OIZH 211900Z 17006KT CAVOK 12/M09 Q1017 A3006

Time: 22:46 (19:16 UTC)

Forecast

The report was made 1 hour and 26 minutes ago, at 17:50 UTC
Forecast valid from 21 at 18 UTC to 22 at 24 UTC
Wind 8 kt from the South/Southwest
Visibility 10 km or more
Temporary
from 22 at 09 UTC to 22 at 12 UTC
Wind 10 kt from the North/Northeast

TAF: OIZH 211750Z 2118/2224 21004MPS 9999 NSC TEMPO 2209/2212 02005MPS

Weather observations and forecasts of more than 4000 airports (METAR and TAF reports).

The available stations are represented by yellow and red dots on the map.

Hover mouse over dot to see the name of the station.

Then click to see weather observations and forecasts.

To change the map : click on the green buttons with a black cross to zoom in, on the green button with a dash to zoom out, or on the green arrows for adjacent maps.


METAR-TAF: